• Join FlightAware (Why Join?)
  • Login
  • US Flag 
05:35AM EST


 

Airport Tracker/Info


-or-


 

Live Flight TrackerFlight Track Log ✈ SKW6418 ✈ 26-Jun-2013 ✈ KSFO - KSLC

Flight Track Log - Related Links

Times and Time Zones

All times are in EDT time to prevent confusion due to time zone crossing. See the SKW6418 flight status page for this flight to view local times or setup timezone preferences in your user account.

Time Position Orientation Groundspeed Altitude Reporting Facility
EDT Latitude Longitude Course Direction KTS MPH feet Rate Location/Type
10:32PM 37.7478 -122.2978 50° Northeast 236 272 5,900  Level Oakland Center
10:33PM 37.8100 -122.2456 34° Northeast 275 316 8,100 2,220 Climbing Oakland Center
10:34PM 37.8683 -122.1461 53° Northeast 300 345 10,500 1,800 Climbing Oakland Center
10:35PM 37.9231 -122.0578 52° Northeast 314 361 11,900 1,140 Climbing Oakland Center
10:36PM 37.7850 -122.1472 53° Northeast  Level FlightAware Approximate
10:36PM 37.9847 -121.9589 52° Northeast 350 403 12,900  Level Oakland Center
10:37PM 37.8550 -122.0342 50° Northeast  Level FlightAware Approximate
10:37PM 38.0494 -121.8536 52° Northeast 371 427 13,900  Level Oakland Center
10:38PM 38.1192 -121.7408 52° Northeast 397 457 14,800 900 Climbing Oakland Center
10:39PM 38.1889 -121.6278 52° Northeast 406 467 15,800 960 Climbing Oakland Center
10:40PM 38.2575 -121.5106 53° Northeast 412 474 16,800 1,020 Climbing Oakland Center
10:41PM 38.3072 -121.3678 66° East 412 474 17,900 1,020 Climbing Oakland Center
10:42PM 38.3544 -121.2344 66° East 418 481 18,900 960 Climbing Oakland Center
10:43PM 38.4125 -121.0739 65° Northeast 424 488 19,900 780 Climbing Oakland Center
10:44PM 38.4619 -120.9372 65° Northeast 430 495 20,600 780 Climbing Oakland Center
10:45PM 38.5111 -120.7989 66° East 432 497 21,600 1,200 Climbing Oakland Center
10:46PM 38.5592 -120.6633 66° East 423 487 23,100 1,440 Climbing Oakland Center
10:47PM 38.6058 -120.5331 65° Northeast 408 470 24,600 1,140 Climbing Oakland Center
10:48PM 38.6686 -120.4167 55° Northeast 401 461 25,500 660 Climbing Oakland Center
10:49PM 38.7328 -120.2950 56° Northeast 412 474 26,000 480 Climbing Oakland Center
10:50PM 38.8064 -120.1400 59° Northeast 426 490 26,600 540 Climbing Oakland Center
10:51PM 38.8600 -120.0019 63° Northeast 433 498 27,200 480 Climbing Oakland Center
10:52PM 38.9064 -119.8567 68° East 442 509 27,700 480 Climbing Oakland Center
10:53PM 38.9550 -119.7097 67° East 446 513 28,200 480 Climbing Oakland Center
10:54PM 39.0031 -119.5644 67° East 445 512 28,700 480 Climbing Oakland Center
10:55PM 39.0514 -119.4169 67° East 447 514 29,200 480 Climbing Oakland Center
10:56PM 39.0994 -119.2697 67° East 447 514 29,700 480 Climbing Oakland Center
10:57PM 39.1475 -119.1219 67° East 448 516 30,200 540 Climbing Oakland Center
10:58PM 39.2031 -118.9500 67° East 446 513 30,800 480 Climbing Oakland Center
10:59PM 39.2506 -118.8033 67° East 443 510 31,300 480 Climbing Oakland Center
11:00PM 39.2972 -118.6556 68° East 445 512 31,800 480 Climbing Oakland Center
11:01PM 39.3444 -118.5072 68° East 446 513 32,300 480 Climbing Oakland Center
11:02PM 39.3894 -118.3672 67° East 445 512 32,800 300 Climbing Oakland Center
11:03PM 39.4358 -118.2219 67° East 441 507 33,000 60 Climbing Oakland Center
11:04PM 39.4911 -118.0425 68° East 448 516 33,000  Level Oakland Center
11:05PM 39.5383 -117.8892 68° East 457 526 33,000  Level Oakland Center
11:06PM 39.5869 -117.7328 68° East 466 536 33,000  Level Oakland Center
11:08PM 39.6350 -117.5756 68° East 469 540 33,000  Level Oakland Center
11:09PM 39.6839 -117.4186 68° East 470 541 33,000  Level Oakland Center
11:10PM 39.7333 -117.2561 68° East 475 547 33,000  Level Oakland Center
11:11PM 39.7861 -117.0783 69° East 474 545 33,000  Level Oakland Center
11:12PM 39.8319 -116.9261 69° East 475 547 33,000  Level Oakland Center
11:13PM 39.8775 -116.7722 69° East 477 549 33,000  Level Oakland Center
11:14PM 39.9311 -116.5931 69° East 479 551 33,000  Level Oakland Center
11:15PM 39.9756 -116.4392 69° East 478 550 33,000  Level Oakland Center
11:16PM 40.0292 -116.2592 69° East 479 551 33,000  Level Oakland Center
11:17PM 40.0739 -116.1033 69° East 481 554 33,000  Level Oakland Center
11:18PM 40.1283 -115.9211 69° East 480 552 33,000  Level Salt Lake Center
11:19PM 40.1736 -115.7661 69° East 479 551 33,000  Level Salt Lake Center
11:20PM 40.2253 -115.5853 69° East 477 549 33,000  Level Salt Lake Center
11:21PM 40.2608 -115.4250 74° East 478 550 33,000  Level Salt Lake Center
11:22PM 40.2900 -115.2628 77° East 478 550 33,000  Level Salt Lake Center
11:23PM 40.3269 -115.0733 76° East 481 554 33,000  Level Salt Lake Center
11:24PM 40.3575 -114.9103 76° East 483 556 33,000  Level Salt Lake Center
11:25PM 40.3883 -114.7444 76° East 480 552 33,000  Level Salt Lake Center
11:26PM 40.4258 -114.5417 76° East 478 550 33,000  Level Salt Lake Center
11:27PM 40.4564 -114.3717 77° East 480 552 33,000  Level Salt Lake Center
11:28PM 40.4883 -114.2036 76° East 476 548 33,000  Level Salt Lake Center
11:29PM 40.5192 -114.0347 76° East 477 549 33,000 -720 Level Salt Lake Center
11:30PM 40.5494 -113.8628 77° East 482 555 31,600 -2,040 Descending Salt Lake Center
11:31PM 40.5825 -113.6789 77° East 513 590 28,900 -2,640 Descending Salt Lake Center
11:32PM 40.6128 -113.5064 77° East 487 560 26,200 -2,580 Descending Salt Lake Center
11:33PM 40.6419 -113.3411 77° East 468 539 23,700 -2,700 Descending Salt Lake Center
11:34PM 40.6758 -113.1342 78° East 483 556 20,700 -2,760 Descending Salt Lake Center
11:35PM 40.7053 -112.9653 77° East 476 548 18,200 -2,040 Descending Salt Lake Center
11:36PM 40.7267 -112.8375 78° East 459 528 17,000 -840 Descending Salt Lake Center
11:37PM 40.7242 -112.7225 92° East 455 524 17,000 -360 Level Salt Lake Center
11:37PM 40.7219 -112.6372 92° East 453 521 16,600 -1,440 Descending Salt Lake Center
11:38PM 40.7294 -112.4750 86° East 449 517 14,800 -1,980 Descending Salt Lake Center
11:39PM 40.7550 -112.3236 77° East 427 491 12,600 -1,380 Descending Salt Lake Center
11:40PM 40.7642 -112.1792 85° East 395 455 12,000 -540 Descending Salt Lake Center
11:41PM 40.7131 -112.0906 127° Southeast 297 342 11,600 -600 Descending Salt Lake Center
11:42PM 40.6358 -112.0706 169° South 226 260 10,800 -840 Descending Salt Lake Center